This is the latest recevied weather packets stored in our database for station/object K1FSY-9. If no packets are shown the sender has not sent any weather packets the latest 1 day(s).
| Time | Temp. | Humidity | Pressure | Rain* | Wind** | Luminosity | Snow |
|---|---|---|---|---|---|---|---|
| 1778076740 | 18.33° C | 76% | 1006.4 hPa | 0 mm | - | - | - |
| 1778067724 | 13.89° C | 89% | 1007.4 hPa | 0 mm | - | - | - |
| 1778065925 | 13.33° C | 91% | 1007.4 hPa | 0 mm | - | - | - |
| 1778064122 | 12.22° C | 91% | 1007.7 hPa | 0 mm | - | - | - |
| 1778060524 | 12.22° C | 89% | 1007.4 hPa | 0 mm | - | - | - |
| 1778058712 | 12.78° C | 89% | 1007.4 hPa | 0 mm | - | - | - |
| 1778053306 | 13.33° C | 85% | 1007.4 hPa | 0 mm | - | - | - |
| 1778051505 | 13.89° C | 84% | 1007.4 hPa | 0 mm | - | - | - |
| 1778049703 | 13.89° C | 81% | 1007.4 hPa | 0 mm | - | - | - |
| 1778047904 | 14.44° C | 79% | 1006.7 hPa | 0 mm | - | - | - |
| 1778046098 | 15° C | 77% | 1007.1 hPa | 0 mm | - | - | - |
| 1778040687 | 15.56° C | 74% | 1007.4 hPa | 0 mm | - | - | - |
| 1778038884 | 15.56° C | 74% | 1007.4 hPa | 0 mm | - | - | - |
| 1778037084 | 15.56° C | 73% | 1007.4 hPa | 0 mm | - | - | - |
| 1778035280 | 16.11° C | 71% | 1007.4 hPa | 0 mm | - | - | - |
| 1778033480 | 16.67° C | 68% | 1007.4 hPa | 0 mm | - | - | - |
| 1778028064 | 17.78° C | 65% | 1006 hPa | 0 mm | - | - | - |
| 1778024460 | 18.89° C | 62% | 1005.4 hPa | 0 mm | - | - | - |
| 1778022660 | 20° C | 58% | 1004.7 hPa | 0 mm | - | - | - |
| 1778020859 | 21.11° C | 55% | 1004 hPa | 0 mm | - | - | - |
| 1778015449 | 23.89° C | 48% | 1003.3 hPa | 0 mm | - | - | - |
| 1778013644 | 25° C | 47% | 1003.3 hPa | 0 mm | - | - | - |
| 1778010036 | 27.22° C | 42% | 1003 hPa | 0 mm | - | - | - |
| 1778001022 | 26.11° C | 46% | 1004.4 hPa | 0 mm | - | - | - |
| 1777999235 | 25.56° C | 46% | 1004.7 hPa | 0 mm | - | - | - |
* Rain latest 24 hours (hover to see other rain measurements)
** Current wind speed in m/s (hover to see current wind gust speed)